createdAt,value
2019-03-21T00:00:18.308Z,13.58
2019-03-21T00:02:50.195Z,12.70
2019-03-21T00:05:22.083Z,15.55
2019-03-21T00:07:53.848Z,14.75
2019-03-21T00:11:07.662Z,13.18
2019-03-21T00:13:39.435Z,13.08
2019-03-21T00:16:13.503Z,14.18
2019-03-21T00:18:45.252Z,14.68
2019-03-21T00:21:17.122Z,14.38
2019-03-21T00:23:48.828Z,15.30
2019-03-21T00:26:20.987Z,15.78
2019-03-21T00:28:52.651Z,14.43
2019-03-21T00:31:24.494Z,15.63
2019-03-21T00:33:56.326Z,15.20
2019-03-21T00:36:28.099Z,15.68
2019-03-21T00:38:59.849Z,16.23
2019-03-21T00:41:32.402Z,16.05
2019-03-21T00:44:04.140Z,16.23
2019-03-21T00:46:36.022Z,17.37
2019-03-21T00:49:07.713Z,17.50
2019-03-21T00:51:39.518Z,16.02
2019-03-21T00:54:11.280Z,15.72
2019-03-21T00:56:43.035Z,15.85
2019-03-21T00:59:14.777Z,17.20
2019-03-21T01:01:46.545Z,15.63
2019-03-21T01:04:18.537Z,17.37
2019-03-21T01:06:52.517Z,15.88
2019-03-21T01:09:25.952Z,15.98
2019-03-21T01:11:57.836Z,17.98
2019-03-21T01:14:30.243Z,15.10
2019-03-21T01:17:02.147Z,17.20
2019-03-21T01:19:33.980Z,17.17
2019-03-21T01:22:05.837Z,17.20
2019-03-21T01:24:37.623Z,16.90
2019-03-21T01:27:09.378Z,16.45
2019-03-21T01:29:41.157Z,16.95
2019-03-21T01:32:12.846Z,16.35
2019-03-21T01:34:44.610Z,16.50
2019-03-21T01:37:16.372Z,14.80
2019-03-21T01:39:48.077Z,15.60
2019-03-21T01:42:19.811Z,14.93
2019-03-21T01:44:51.609Z,14.65
2019-03-21T01:47:23.474Z,15.93
2019-03-21T01:49:55.252Z,16.70
2019-03-21T01:52:27.122Z,16.55
2019-03-21T01:54:58.875Z,15.93
2019-03-21T01:57:30.757Z,16.82
2019-03-21T02:00:02.733Z,17.37
2019-03-21T02:02:35.738Z,15.53
2019-03-21T02:05:08.274Z,15.95
2019-03-21T02:07:40.128Z,16.97
2019-03-21T02:10:13.825Z,17.63
2019-03-21T02:12:45.511Z,15.50
2019-03-21T02:15:17.235Z,16.40
2019-03-21T02:17:49.525Z,17.10
2019-03-21T02:20:21.320Z,14.73
2019-03-21T02:22:53.111Z,16.97
2019-03-21T02:25:26.972Z,17.85
2019-03-21T02:27:59.000Z,18.30
2019-03-21T02:30:32.811Z,17.23
2019-03-21T02:33:08.222Z,17.00
2019-03-21T02:35:40.009Z,16.17
2019-03-21T02:38:11.751Z,15.83
2019-03-21T02:40:43.617Z,16.37
2019-03-21T02:43:15.736Z,15.78
2019-03-21T02:45:47.534Z,17.73
2019-03-21T02:48:19.362Z,16.67
2019-03-21T02:50:51.066Z,17.40
2019-03-21T02:53:22.833Z,16.27
2019-03-21T02:55:54.659Z,15.68
2019-03-21T02:58:26.404Z,15.57
2019-03-21T03:00:58.126Z,16.02
2019-03-21T03:03:30.110Z,15.72
2019-03-21T03:06:01.841Z,17.35
2019-03-21T03:08:33.644Z,17.57
2019-03-21T03:11:05.842Z,15.90
2019-03-21T03:13:37.846Z,16.05
2019-03-21T03:16:09.592Z,16.30
2019-03-21T03:18:41.382Z,16.45
2019-03-21T03:21:13.124Z,17.62
2019-03-21T03:23:44.829Z,16.57
2019-03-21T03:26:16.538Z,17.05
2019-03-21T03:28:48.266Z,15.57
2019-03-21T03:31:19.973Z,15.73
2019-03-21T03:33:51.699Z,16.45
2019-03-21T03:36:23.383Z,16.48
2019-03-21T03:38:55.144Z,17.17
2019-03-21T03:41:27.929Z,17.50
2019-03-21T03:43:59.756Z,16.62
2019-03-21T03:46:32.500Z,17.00
2019-03-21T03:49:04.303Z,18.02
2019-03-21T03:51:36.109Z,16.60
2019-03-21T03:54:07.885Z,17.35
2019-03-21T03:56:39.641Z,15.95
2019-03-21T03:59:11.673Z,15.63
2019-03-21T04:01:43.515Z,16.95
2019-03-21T04:04:15.285Z,16.82
2019-03-21T04:06:47.082Z,17.97
2019-03-21T04:09:18.980Z,17.57
2019-03-21T04:11:50.740Z,16.82
2019-03-21T04:14:23.498Z,19.13
2019-03-21T04:16:55.300Z,17.87
2019-03-21T04:19:27.039Z,16.70
2019-03-21T04:21:58.802Z,17.73
2019-03-21T04:24:30.932Z,18.98
2019-03-21T04:27:02.702Z,19.87
2019-03-21T04:29:34.493Z,17.85
2019-03-21T04:32:06.302Z,19.48
2019-03-21T04:34:38.072Z,19.77
2019-03-21T04:37:09.828Z,20.25
2019-03-21T04:39:41.639Z,19.40
2019-03-21T04:42:13.336Z,19.73
2019-03-21T04:44:45.070Z,19.27
2019-03-21T04:47:16.882Z,18.48
2019-03-21T04:49:48.616Z,18.27
2019-03-21T04:52:20.407Z,19.05
2019-03-21T04:54:52.139Z,22.27
2019-03-21T04:57:24.808Z,21.35
2019-03-21T04:59:56.557Z,21.07
2019-03-21T05:02:28.384Z,20.27
2019-03-21T05:05:00.143Z,20.52
2019-03-21T05:07:31.901Z,20.70
2019-03-21T05:10:03.835Z,20.47
2019-03-21T05:12:35.569Z,20.20
2019-03-21T05:15:10.364Z,18.55
2019-03-21T05:17:42.160Z,18.77
2019-03-21T05:20:16.650Z,19.50
2019-03-21T05:22:48.502Z,20.60
2019-03-21T05:25:20.334Z,20.73
2019-03-21T05:27:52.085Z,21.40
2019-03-21T05:30:27.399Z,21.60
2019-03-21T05:32:59.277Z,21.07
2019-03-21T05:35:30.968Z,20.95
2019-03-21T05:38:02.718Z,21.37
2019-03-21T05:40:34.426Z,20.92
2019-03-21T05:43:09.440Z,20.77
2019-03-21T05:45:41.108Z,22.37
2019-03-21T05:48:12.877Z,20.80
2019-03-21T05:50:44.650Z,21.62
2019-03-21T05:53:16.392Z,21.60
2019-03-21T05:55:48.283Z,21.97
2019-03-21T05:58:20.047Z,21.87
2019-03-21T06:00:51.832Z,22.67
2019-03-21T06:03:26.930Z,21.20
2019-03-21T06:06:10.298Z,22.75
2019-03-21T06:08:42.263Z,24.70
2019-03-21T06:11:14.140Z,22.58
2019-03-21T06:13:45.910Z,24.32
2019-03-21T06:16:17.742Z,22.45
2019-03-21T06:19:03.659Z,23.10
2019-03-21T06:21:49.973Z,23.18
2019-03-21T06:24:36.756Z,25.00
2019-03-21T06:27:31.339Z,23.40
2019-03-21T06:30:03.164Z,25.10
2019-03-21T06:32:34.923Z,23.50
2019-03-21T06:35:20.454Z,23.92
2019-03-21T06:37:52.899Z,24.37
2019-03-21T06:40:24.670Z,23.10
2019-03-21T06:42:56.418Z,23.77
2019-03-21T06:45:28.186Z,24.95
2019-03-21T06:48:00.010Z,22.48
2019-03-21T06:50:31.823Z,24.50
2019-03-21T06:53:03.718Z,25.93
2019-03-21T06:55:35.558Z,24.40
2019-03-21T06:58:07.338Z,23.07
2019-03-21T07:00:39.143Z,23.90
2019-03-21T07:03:10.873Z,22.27
2019-03-21T07:05:42.749Z,24.87
2019-03-21T07:08:14.513Z,22.70
2019-03-21T07:10:46.569Z,24.82
2019-03-21T07:13:18.237Z,23.90
2019-03-21T07:15:49.971Z,24.80
2019-03-21T07:18:21.871Z,24.12
2019-03-21T07:20:53.624Z,22.98
2019-03-21T07:23:25.418Z,22.65
2019-03-21T07:25:57.159Z,22.67
2019-03-21T07:28:28.869Z,24.72
2019-03-21T07:31:00.652Z,25.52
2019-03-21T07:33:32.604Z,23.20
2019-03-21T07:36:05.374Z,23.47
2019-03-21T07:38:37.164Z,23.95
2019-03-21T07:41:09.042Z,23.73
2019-03-21T07:43:40.761Z,25.17
2019-03-21T07:46:12.629Z,24.50
2019-03-21T07:48:44.347Z,24.43
2019-03-21T07:51:16.185Z,23.00
2019-03-21T07:53:47.873Z,24.32
2019-03-21T07:56:19.622Z,22.60
2019-03-21T07:58:51.321Z,22.03
2019-03-21T08:01:23.146Z,23.65
2019-03-21T08:03:54.828Z,22.27
2019-03-21T08:06:26.583Z,22.50
2019-03-21T08:08:58.274Z,21.17
2019-03-21T08:11:30.023Z,21.02
2019-03-21T08:14:01.797Z,20.95
2019-03-21T08:16:33.632Z,20.30
2019-03-21T08:19:05.406Z,21.40
2019-03-21T08:21:37.177Z,21.50
2019-03-21T08:24:08.906Z,21.23
2019-03-21T08:26:40.696Z,21.15
2019-03-21T08:29:12.500Z,21.05
2019-03-21T08:31:44.260Z,19.85
2019-03-21T08:34:16.006Z,21.20
2019-03-21T08:36:47.801Z,19.77
2019-03-21T08:39:19.567Z,20.17
2019-03-21T08:41:51.429Z,21.62
2019-03-21T08:44:23.143Z,20.20
2019-03-21T08:46:54.866Z,21.20
2019-03-21T08:49:26.613Z,20.32
2019-03-21T08:51:58.422Z,20.37
2019-03-21T08:54:30.237Z,20.43
2019-03-21T08:57:02.045Z,20.25
2019-03-21T08:59:33.798Z,21.35
2019-03-21T09:02:05.565Z,20.15
2019-03-21T09:04:37.397Z,20.17
2019-03-21T09:07:09.221Z,20.68
2019-03-21T09:09:40.972Z,20.85
2019-03-21T09:12:12.748Z,21.15
2019-03-21T09:14:44.514Z,20.60
2019-03-21T09:17:16.376Z,20.32
2019-03-21T09:19:48.131Z,20.65
2019-03-21T09:22:19.907Z,18.73
2019-03-21T09:24:51.843Z,21.50
2019-03-21T09:27:23.585Z,20.00
2019-03-21T09:29:55.410Z,21.95
2019-03-21T09:32:27.248Z,20.50
2019-03-21T09:34:58.980Z,21.33
2019-03-21T09:37:30.769Z,20.02
2019-03-21T09:40:02.607Z,19.65
2019-03-21T09:42:34.409Z,21.42
2019-03-21T09:45:06.798Z,20.43
2019-03-21T09:47:38.499Z,21.37
2019-03-21T09:50:10.423Z,20.95
2019-03-21T09:52:43.122Z,21.65
2019-03-21T09:55:14.969Z,20.27
2019-03-21T09:57:46.707Z,21.80
2019-03-21T10:00:28.199Z,21.87
2019-03-21T10:02:59.953Z,21.82
2019-03-21T10:05:31.854Z,22.95
2019-03-21T10:08:04.085Z,22.13
2019-03-21T10:10:36.175Z,21.85
2019-03-21T10:13:08.211Z,22.67
2019-03-21T10:15:39.968Z,22.48
2019-03-21T10:18:11.732Z,21.45
2019-03-21T10:20:43.544Z,23.47
2019-03-21T10:23:15.440Z,24.05
2019-03-21T10:25:47.247Z,23.02
2019-03-21T10:28:19.121Z,23.25
2019-03-21T10:30:50.821Z,21.50
2019-03-21T10:33:22.781Z,23.65
2019-03-21T10:35:54.798Z,25.23
2019-03-21T10:38:26.598Z,21.82
2019-03-21T10:40:58.467Z,21.25
2019-03-21T10:43:30.270Z,22.70
2019-03-21T10:46:02.055Z,23.30
2019-03-21T10:48:33.983Z,23.50
2019-03-21T10:51:05.950Z,23.25
2019-03-21T10:53:37.874Z,25.30
2019-03-21T10:56:09.586Z,25.12
2019-03-21T10:58:41.490Z,24.80
2019-03-21T11:01:13.205Z,24.45
2019-03-21T11:03:44.991Z,24.02
2019-03-21T11:06:16.826Z,26.68
2019-03-21T11:08:48.665Z,27.25
2019-03-21T11:11:20.454Z,25.80
2019-03-21T11:13:52.269Z,27.52
2019-03-21T11:16:24.119Z,26.97
2019-03-21T11:18:55.863Z,25.62
2019-03-21T11:21:27.616Z,25.20
2019-03-21T11:23:59.349Z,25.25
2019-03-21T11:26:31.206Z,23.65
2019-03-21T11:29:03.035Z,23.55
2019-03-21T11:31:34.796Z,23.30
2019-03-21T11:34:06.658Z,24.35
2019-03-21T11:36:38.957Z,24.05
2019-03-21T11:39:10.742Z,24.35
2019-03-21T11:41:42.496Z,23.87
2019-03-21T11:44:14.635Z,22.17
2019-03-21T11:46:46.406Z,21.97
2019-03-21T11:49:18.255Z,24.45
2019-03-21T11:51:50.057Z,24.50
2019-03-21T11:54:21.898Z,23.67
2019-03-21T11:56:53.786Z,24.95
2019-03-21T11:59:36.944Z,25.00
2019-03-21T12:01:59.196Z,23.87
2019-03-21T12:04:31.072Z,25.15
2019-03-21T12:07:02.882Z,23.60
2019-03-21T12:09:34.731Z,23.98
2019-03-21T12:12:06.553Z,24.18
2019-03-21T12:14:38.646Z,25.27
2019-03-21T12:17:12.725Z,26.00
2019-03-21T12:19:43.986Z,23.47
2019-03-21T12:22:15.706Z,24.27
2019-03-21T12:24:47.546Z,25.52
2019-03-21T12:27:20.610Z,24.80
2019-03-21T12:29:52.369Z,23.38
2019-03-21T12:32:24.222Z,22.73
2019-03-21T12:34:56.030Z,23.02
2019-03-21T12:37:27.875Z,24.02
2019-03-21T12:39:59.617Z,22.75
2019-03-21T12:42:31.622Z,23.05
2019-03-21T12:45:03.451Z,23.20
2019-03-21T12:47:35.413Z,23.92
2019-03-21T12:50:08.624Z,23.50
2019-03-21T12:55:13.902Z,24.75
2019-03-21T12:57:45.739Z,24.18
2019-03-21T13:00:24.035Z,26.75
2019-03-21T13:02:55.739Z,25.27
2019-03-21T13:05:29.096Z,26.50
2019-03-21T13:07:13.116Z,25.27
2019-03-21T13:08:00.945Z,28.30
2019-03-21T13:10:32.684Z,27.20
2019-03-21T13:13:04.746Z,27.80
2019-03-21T13:15:36.792Z,27.93
2019-03-21T13:18:09.012Z,27.05
2019-03-21T13:20:40.802Z,27.42
2019-03-21T13:23:12.554Z,27.73
2019-03-21T13:25:44.280Z,27.75
2019-03-21T13:28:15.985Z,26.82
2019-03-21T13:30:47.716Z,26.85
2019-03-21T13:33:19.446Z,26.68
2019-03-21T13:35:51.186Z,26.40
2019-03-21T13:38:23.055Z,26.95
2019-03-21T13:40:54.707Z,26.05
2019-03-21T13:43:26.593Z,27.30
2019-03-21T13:45:58.524Z,27.07
2019-03-21T13:48:30.290Z,26.48
2019-03-21T13:51:02.033Z,25.62
2019-03-21T13:53:33.916Z,26.55
2019-03-21T13:56:05.962Z,27.07
2019-03-21T13:58:37.708Z,26.65
2019-03-21T14:01:09.435Z,28.25
2019-03-21T14:03:41.225Z,28.12
2019-03-21T14:06:13.055Z,27.07
2019-03-21T14:08:44.883Z,26.70
2019-03-21T14:11:19.202Z,24.92
2019-03-21T14:13:50.517Z,26.33
2019-03-21T14:16:23.210Z,25.30
2019-03-21T14:18:55.179Z,24.10
2019-03-21T14:21:26.964Z,25.37
2019-03-21T14:23:59.837Z,26.30
2019-03-21T14:26:31.673Z,27.10
2019-03-21T14:29:12.100Z,25.80
2019-03-21T14:31:36.901Z,25.40
2019-03-21T14:34:08.663Z,26.57
2019-03-21T14:36:41.859Z,25.17
2019-03-21T14:39:13.749Z,25.35
2019-03-21T14:41:45.615Z,22.90
2019-03-21T14:44:17.420Z,24.00
2019-03-21T14:46:49.237Z,24.18
2019-03-21T14:49:21.109Z,24.72
2019-03-21T14:51:52.921Z,24.23
2019-03-21T14:54:24.864Z,24.23
2019-03-21T14:56:56.814Z,24.77
2019-03-21T14:59:28.710Z,24.02
2019-03-21T15:02:00.592Z,24.02
2019-03-21T15:04:32.478Z,24.02
2019-03-21T15:07:04.299Z,24.45
2019-03-21T15:09:36.144Z,25.70
2019-03-21T15:12:07.870Z,23.55
2019-03-21T15:14:39.762Z,23.02
2019-03-21T15:17:11.557Z,23.70
2019-03-21T15:19:43.381Z,24.85
2019-03-21T15:22:15.111Z,24.12
2019-03-21T15:24:47.106Z,23.77
2019-03-21T15:27:18.869Z,24.85
2019-03-21T15:29:50.893Z,23.12
2019-03-21T15:32:22.533Z,23.77
2019-03-21T15:34:54.369Z,25.30
2019-03-21T15:37:26.035Z,24.65
2019-03-21T15:39:57.876Z,24.27
2019-03-21T15:42:29.558Z,25.35
2019-03-21T15:45:15.672Z,24.70
2019-03-21T15:47:36.019Z,24.67
2019-03-21T15:50:09.669Z,25.92
2019-03-21T15:52:41.525Z,24.80
2019-03-21T15:55:13.433Z,22.45
2019-03-21T15:57:45.261Z,23.50
2019-03-21T16:00:21.374Z,24.15
2019-03-21T16:02:53.198Z,24.25
2019-03-21T16:05:24.966Z,23.42
2019-03-21T16:07:56.987Z,24.85
2019-03-21T16:10:28.811Z,23.50
2019-03-21T16:13:00.502Z,24.37
2019-03-21T16:15:32.807Z,25.62
2019-03-21T16:18:05.210Z,24.25
2019-03-21T16:20:37.098Z,24.02
2019-03-21T16:23:08.965Z,24.50
2019-03-21T16:25:40.765Z,25.55
2019-03-21T16:28:12.671Z,23.85
2019-03-21T16:30:44.477Z,26.02
2019-03-21T16:33:16.314Z,25.40
2019-03-21T16:35:48.103Z,25.68
2019-03-21T16:38:19.985Z,23.57
2019-03-21T16:40:51.829Z,23.98
2019-03-21T16:43:23.638Z,23.95
2019-03-21T16:45:55.426Z,23.77
2019-03-21T16:48:27.359Z,32.05
2019-03-21T16:50:59.157Z,24.63
2019-03-21T16:53:30.988Z,23.80
2019-03-21T16:56:02.904Z,24.43
2019-03-21T16:58:34.701Z,24.00
2019-03-21T17:01:06.610Z,24.95
2019-03-21T17:03:38.638Z,25.30
2019-03-21T17:06:11.417Z,24.98
2019-03-21T17:08:43.271Z,22.73
2019-03-21T17:11:15.122Z,24.20
2019-03-21T17:13:47.222Z,23.92
2019-03-21T17:16:20.055Z,24.65
2019-03-21T17:18:51.938Z,28.07
2019-03-21T17:21:23.977Z,25.60
2019-03-21T17:23:55.873Z,23.98
2019-03-21T17:26:27.642Z,24.47
2019-03-21T17:29:00.445Z,24.07
2019-03-21T17:31:32.286Z,23.65
2019-03-21T17:34:04.346Z,23.75
2019-03-21T17:36:36.083Z,23.62
2019-03-21T17:39:09.399Z,23.30
2019-03-21T17:41:43.342Z,25.60
2019-03-21T17:44:14.981Z,25.52
2019-03-21T17:46:46.949Z,24.20
2019-03-21T17:49:18.778Z,42.45
2019-03-21T17:51:50.693Z,27.13
2019-03-21T17:54:22.402Z,24.63
2019-03-21T17:56:54.404Z,24.02
2019-03-21T17:59:26.309Z,25.20
2019-03-21T18:01:58.309Z,24.98
2019-03-21T18:04:30.241Z,25.30
2019-03-21T18:07:02.118Z,24.70
2019-03-21T18:09:33.984Z,25.43
2019-03-21T18:12:05.881Z,24.63
2019-03-21T18:14:37.678Z,38.08
2019-03-21T18:17:09.400Z,48.13
2019-03-21T18:19:41.147Z,27.60
2019-03-21T18:22:12.957Z,27.98
2019-03-21T18:24:53.802Z,24.85
2019-03-21T18:27:18.235Z,26.02
2019-03-21T18:29:50.002Z,26.65
2019-03-21T18:32:21.895Z,26.40
2019-03-21T18:34:55.227Z,27.32
2019-03-21T18:37:27.675Z,27.73
2019-03-21T18:40:00.967Z,26.45
2019-03-21T18:42:33.478Z,27.60
2019-03-21T18:45:06.299Z,25.85
2019-03-21T18:47:38.131Z,27.55
2019-03-21T18:50:10.263Z,25.97
2019-03-21T18:52:42.614Z,26.52
2019-03-21T18:55:14.749Z,26.57
2019-03-21T18:57:46.579Z,27.58
2019-03-21T19:00:18.540Z,27.62
2019-03-21T19:02:50.736Z,27.07
2019-03-21T19:05:22.544Z,26.33
2019-03-21T19:07:55.135Z,27.65
2019-03-21T19:10:27.936Z,28.10
2019-03-21T19:12:59.776Z,34.60
2019-03-21T19:15:31.542Z,31.12
2019-03-21T19:18:03.382Z,28.62
2019-03-21T19:20:35.254Z,28.87
2019-03-21T19:23:08.302Z,26.80
2019-03-21T19:25:41.009Z,51.15
2019-03-21T19:28:13.216Z,90.62
2019-03-21T19:30:47.678Z,35.70
2019-03-21T19:33:21.258Z,26.80
2019-03-21T19:35:54.807Z,27.25
2019-03-21T19:38:27.692Z,27.07
2019-03-21T19:40:59.726Z,28.60
2019-03-21T19:43:31.576Z,28.70
2019-03-21T19:46:04.833Z,28.83
2019-03-21T19:48:45.688Z,28.62
2019-03-21T19:51:11.568Z,28.92
2019-03-21T19:53:44.157Z,29.52
2019-03-21T19:56:16.082Z,29.07
2019-03-21T19:58:47.764Z,30.88
2019-03-21T20:01:19.757Z,30.20
2019-03-21T20:03:52.017Z,29.10
2019-03-21T20:06:23.930Z,31.90
2019-03-21T20:08:57.011Z,31.90
2019-03-21T20:11:29.057Z,31.33
2019-03-21T20:14:03.750Z,27.65
2019-03-21T20:16:34.510Z,29.23
2019-03-21T20:19:06.364Z,29.65
2019-03-21T20:21:47.336Z,32.45
2019-03-21T20:24:12.991Z,29.27
2019-03-21T20:26:46.559Z,28.73
2019-03-21T20:29:18.687Z,29.95
2019-03-21T20:31:50.519Z,29.18
2019-03-21T20:34:22.352Z,29.77
2019-03-21T20:36:54.258Z,28.67
2019-03-21T20:39:26.235Z,28.87
2019-03-21T20:41:58.088Z,28.83
2019-03-21T20:44:29.874Z,30.72
2019-03-21T20:47:01.578Z,30.65
2019-03-21T20:49:33.374Z,31.48
2019-03-21T20:52:06.096Z,31.35
2019-03-21T20:54:37.818Z,28.70
2019-03-21T20:57:09.707Z,30.72
2019-03-21T20:59:41.530Z,29.80
2019-03-21T21:02:13.429Z,30.05
2019-03-21T21:04:45.189Z,31.55
2019-03-21T21:07:18.023Z,30.45
2019-03-21T21:09:52.716Z,31.20
2019-03-21T21:12:24.805Z,30.05
2019-03-21T21:14:56.627Z,27.30
2019-03-21T21:17:28.443Z,26.75
2019-03-21T21:20:00.420Z,27.27
2019-03-21T21:22:32.266Z,27.80
2019-03-21T21:25:04.535Z,27.95
2019-03-21T21:27:48.175Z,30.02
2019-03-21T21:30:11.313Z,30.08
2019-03-21T21:32:43.208Z,31.40
2019-03-21T21:35:15.300Z,27.42
2019-03-21T21:37:47.274Z,27.60
2019-03-21T21:40:19.434Z,25.60
2019-03-21T21:42:52.320Z,26.77
2019-03-21T21:45:24.227Z,25.75
2019-03-21T21:47:56.636Z,27.30
2019-03-21T21:50:28.490Z,28.15
2019-03-21T21:53:00.348Z,27.60
2019-03-21T21:55:32.248Z,27.48
2019-03-21T21:58:04.066Z,27.85
2019-03-21T22:00:35.965Z,30.45
2019-03-21T22:03:07.679Z,28.25
